sensor_id;sensor_type;location;lat;lon;timestamp;P1;durP1;ratioP1;P2;durP2;ratioP2
17564;SDS011;62994;52.126;5.596;2023-01-16T00:00:24;2.30;;;1.35;;
17564;SDS011;62994;52.126;5.596;2023-01-16T00:02:51;1.80;;;1.50;;
17564;SDS011;62994;52.126;5.596;2023-01-16T00:05:18;1.73;;;1.60;;
17564;SDS011;62994;52.126;5.596;2023-01-16T00:07:45;1.60;;;1.50;;
17564;SDS011;62994;52.126;5.596;2023-01-16T00:10:12;2.30;;;1.48;;
17564;SDS011;62994;52.126;5.596;2023-01-16T00:12:41;1.60;;;1.50;;
17564;SDS011;62994;52.126;5.596;2023-01-16T00:15:10;2.20;;;1.77;;
17564;SDS011;62994;52.126;5.596;2023-01-16T00:17:37;2.78;;;1.92;;
17564;SDS011;62994;52.126;5.596;2023-01-16T00:20:04;1.67;;;1.58;;
17564;SDS011;62994;52.126;5.596;2023-01-16T00:22:31;1.83;;;1.67;;
17564;SDS011;62994;52.126;5.596;2023-01-16T00:24:58;3.38;;;1.90;;
17564;SDS011;62994;52.126;5.596;2023-01-16T00:27:25;3.60;;;2.10;;
17564;SDS011;62994;52.126;5.596;2023-01-16T00:29:52;2.67;;;1.80;;
17564;SDS011;62994;52.126;5.596;2023-01-16T00:32:20;2.40;;;2.20;;
17564;SDS011;62994;52.126;5.596;2023-01-16T00:34:47;2.25;;;2.15;;
17564;SDS011;62994;52.126;5.596;2023-01-16T00:37:14;2.40;;;2.20;;
17564;SDS011;62994;52.126;5.596;2023-01-16T00:39:41;2.78;;;2.28;;
17564;SDS011;62994;52.126;5.596;2023-01-16T00:42:08;2.55;;;2.35;;
17564;SDS011;62994;52.126;5.596;2023-01-16T00:44:35;2.42;;;2.15;;
17564;SDS011;62994;52.126;5.596;2023-01-16T00:47:02;3.25;;;2.67;;
17564;SDS011;62994;52.126;5.596;2023-01-16T00:49:35;2.90;;;2.70;;
17564;SDS011;62994;52.126;5.596;2023-01-16T00:52:02;2.70;;;2.50;;
17564;SDS011;62994;52.126;5.596;2023-01-16T00:54:30;3.05;;;2.70;;
17564;SDS011;62994;52.126;5.596;2023-01-16T00:56:56;3.20;;;3.03;;
17564;SDS011;62994;52.126;5.596;2023-01-16T00:59:23;4.35;;;3.58;;
17564;SDS011;62994;52.126;5.596;2023-01-16T01:01:50;3.08;;;2.88;;
17564;SDS011;62994;52.126;5.596;2023-01-16T01:04:17;3.28;;;3.10;;
17564;SDS011;62994;52.126;5.596;2023-01-16T01:06:46;4.15;;;3.75;;
17564;SDS011;62994;52.126;5.596;2023-01-16T01:09:13;3.85;;;3.55;;
17564;SDS011;62994;52.126;5.596;2023-01-16T01:11:40;3.90;;;3.70;;
17564;SDS011;62994;52.126;5.596;2023-01-16T01:14:07;4.32;;;4.13;;
17564;SDS011;62994;52.126;5.596;2023-01-16T01:16:34;5.05;;;4.70;;
17564;SDS011;62994;52.126;5.596;2023-01-16T01:19:01;5.15;;;4.80;;
17564;SDS011;62994;52.126;5.596;2023-01-16T01:21:27;5.13;;;4.82;;
17564;SDS011;62994;52.126;5.596;2023-01-16T01:23:56;6.82;;;6.43;;
17564;SDS011;62994;52.126;5.596;2023-01-16T01:26:23;6.50;;;5.85;;
17564;SDS011;62994;52.126;5.596;2023-01-16T01:28:50;6.45;;;5.90;;
17564;SDS011;62994;52.126;5.596;2023-01-16T01:31:17;7.68;;;6.57;;
17564;SDS011;62994;52.126;5.596;2023-01-16T01:33:44;7.95;;;7.28;;
17564;SDS011;62994;52.126;5.596;2023-01-16T01:36:11;8.30;;;7.57;;
17564;SDS011;62994;52.126;5.596;2023-01-16T01:38:38;9.75;;;8.80;;
17564;SDS011;62994;52.126;5.596;2023-01-16T01:41:06;9.40;;;7.72;;
17564;SDS011;62994;52.126;5.596;2023-01-16T01:43:46;11.05;;;8.68;;
17564;SDS011;62994;52.126;5.596;2023-01-16T01:46:19;9.30;;;8.48;;
17564;SDS011;62994;52.126;5.596;2023-01-16T01:48:49;9.38;;;8.43;;
17564;SDS011;62994;52.126;5.596;2023-01-16T01:51:19;9.77;;;8.70;;
17564;SDS011;62994;52.126;5.596;2023-01-16T01:53:50;10.35;;;8.35;;
17564;SDS011;62994;52.126;5.596;2023-01-16T01:56:25;10.15;;;9.35;;
17564;SDS011;62994;52.126;5.596;2023-01-16T01:58:56;8.73;;;7.85;;
17564;SDS011;62994;52.126;5.596;2023-01-16T02:01:27;8.70;;;7.82;;
17564;SDS011;62994;52.126;5.596;2023-01-16T02:03:56;8.68;;;7.78;;
17564;SDS011;62994;52.126;5.596;2023-01-16T02:06:27;9.93;;;8.95;;
17564;SDS011;62994;52.126;5.596;2023-01-16T02:08:58;7.43;;;6.82;;
17564;SDS011;62994;52.126;5.596;2023-01-16T02:11:29;7.80;;;7.05;;
17564;SDS011;62994;52.126;5.596;2023-01-16T02:14:02;7.95;;;7.22;;
17564;SDS011;62994;52.126;5.596;2023-01-16T02:16:31;6.70;;;6.07;;
17564;SDS011;62994;52.126;5.596;2023-01-16T02:19:17;10.40;;;5.53;;
17564;SDS011;62994;52.126;5.596;2023-01-16T02:22:04;6.18;;;5.07;;
17564;SDS011;62994;52.126;5.596;2023-01-16T02:28:18;4.82;;;4.38;;
17564;SDS011;62994;52.126;5.596;2023-01-16T02:31:08;6.65;;;4.20;;
17564;SDS011;62994;52.126;5.596;2023-01-16T02:33:45;5.32;;;4.13;;
17564;SDS011;62994;52.126;5.596;2023-01-16T02:36:24;4.30;;;3.83;;
17564;SDS011;62994;52.126;5.596;2023-01-16T02:39:02;5.10;;;3.80;;
17564;SDS011;62994;52.126;5.596;2023-01-16T02:41:36;4.70;;;3.97;;
17564;SDS011;62994;52.126;5.596;2023-01-16T02:44:10;7.75;;;3.90;;
17564;SDS011;62994;52.126;5.596;2023-01-16T02:46:50;5.93;;;4.00;;
17564;SDS011;62994;52.126;5.596;2023-01-16T02:49:27;4.53;;;4.05;;
17564;SDS011;62994;52.126;5.596;2023-01-16T02:52:03;6.97;;;4.18;;
17564;SDS011;62994;52.126;5.596;2023-01-16T02:54:36;8.52;;;4.65;;
17564;SDS011;62994;52.126;5.596;2023-01-16T02:57:09;6.45;;;5.40;;
17564;SDS011;62994;52.126;5.596;2023-01-16T02:59:41;4.60;;;4.10;;
17564;SDS011;62994;52.126;5.596;2023-01-16T03:02:10;5.70;;;3.67;;
17564;SDS011;62994;52.126;5.596;2023-01-16T03:04:41;6.47;;;4.00;;
17564;SDS011;62994;52.126;5.596;2023-01-16T03:10:15;4.53;;;3.60;;
17564;SDS011;62994;52.126;5.596;2023-01-16T03:12:55;3.10;;;2.90;;
17564;SDS011;62994;52.126;5.596;2023-01-16T03:15:34;2.80;;;2.53;;
17564;SDS011;62994;52.126;5.596;2023-01-16T03:18:14;2.78;;;2.45;;
17564;SDS011;62994;52.126;5.596;2023-01-16T03:20:49;4.22;;;2.33;;
17564;SDS011;62994;52.126;5.596;2023-01-16T03:23:22;2.70;;;2.05;;
17564;SDS011;62994;52.126;5.596;2023-01-16T03:25:57;7.40;;;2.17;;
17564;SDS011;62994;52.126;5.596;2023-01-16T03:28:29;2.97;;;2.20;;
17564;SDS011;62994;52.126;5.596;2023-01-16T03:31:03;5.15;;;2.00;;
17564;SDS011;62994;52.126;5.596;2023-01-16T03:33:39;3.95;;;2.30;;
17564;SDS011;62994;52.126;5.596;2023-01-16T03:36:12;2.05;;;1.67;;
17564;SDS011;62994;52.126;5.596;2023-01-16T03:38:41;2.33;;;1.40;;
17564;SDS011;62994;52.126;5.596;2023-01-16T03:41:12;2.35;;;2.00;;
17564;SDS011;62994;52.126;5.596;2023-01-16T03:43:42;1.55;;;1.45;;
17564;SDS011;62994;52.126;5.596;2023-01-16T03:46:12;6.72;;;1.52;;
17564;SDS011;62994;52.126;5.596;2023-01-16T03:48:44;1.98;;;1.70;;
17564;SDS011;62994;52.126;5.596;2023-01-16T03:51:16;2.70;;;1.63;;
17564;SDS011;62994;52.126;5.596;2023-01-16T03:53:49;2.72;;;1.98;;
17564;SDS011;62994;52.126;5.596;2023-01-16T03:56:23;8.95;;;1.52;;
17564;SDS011;62994;52.126;5.596;2023-01-16T03:58:55;3.13;;;1.65;;
17564;SDS011;62994;52.126;5.596;2023-01-16T04:01:24;4.40;;;1.75;;
17564;SDS011;62994;52.126;5.596;2023-01-16T04:03:58;1.60;;;1.50;;
17564;SDS011;62994;52.126;5.596;2023-01-16T04:06:35;3.05;;;1.23;;
17564;SDS011;62994;52.126;5.596;2023-01-16T04:09:10;2.15;;;1.20;;
17564;SDS011;62994;52.126;5.596;2023-01-16T04:11:40;2.67;;;1.50;;
17564;SDS011;62994;52.126;5.596;2023-01-16T04:14:09;5.18;;;1.60;;
17564;SDS011;62994;52.126;5.596;2023-01-16T04:16:39;4.13;;;1.45;;
17564;SDS011;62994;52.126;5.596;2023-01-16T04:19:09;4.07;;;1.33;;
17564;SDS011;62994;52.126;5.596;2023-01-16T04:21:42;2.85;;;1.42;;
17564;SDS011;62994;52.126;5.596;2023-01-16T04:24:09;2.53;;;1.52;;
17564;SDS011;62994;52.126;5.596;2023-01-16T04:26:37;3.83;;;1.70;;
17564;SDS011;62994;52.126;5.596;2023-01-16T04:29:04;1.90;;;1.80;;
17564;SDS011;62994;52.126;5.596;2023-01-16T04:31:31;2.27;;;1.73;;
17564;SDS011;62994;52.126;5.596;2023-01-16T04:33:58;4.65;;;1.58;;
17564;SDS011;62994;52.126;5.596;2023-01-16T04:36:26;1.67;;;1.55;;
17564;SDS011;62994;52.126;5.596;2023-01-16T04:38:54;7.20;;;1.70;;
17564;SDS011;62994;52.126;5.596;2023-01-16T04:41:20;4.85;;;1.40;;
17564;SDS011;62994;52.126;5.596;2023-01-16T04:44:01;10.80;;;1.77;;
17564;SDS011;62994;52.126;5.596;2023-01-16T04:46:29;3.58;;;1.52;;
17564;SDS011;62994;52.126;5.596;2023-01-16T04:48:56;5.70;;;1.13;;
17564;SDS011;62994;52.126;5.596;2023-01-16T04:51:23;1.77;;;1.10;;
17564;SDS011;62994;52.126;5.596;2023-01-16T04:53:54;3.17;;;1.80;;
17564;SDS011;62994;52.126;5.596;2023-01-16T04:56:21;3.25;;;1.20;;
17564;SDS011;62994;52.126;5.596;2023-01-16T04:58:47;5.32;;;1.15;;
17564;SDS011;62994;52.126;5.596;2023-01-16T05:01:16;4.43;;;1.20;;
17564;SDS011;62994;52.126;5.596;2023-01-16T05:03:43;3.77;;;1.53;;
17564;SDS011;62994;52.126;5.596;2023-01-16T05:06:10;1.37;;;1.20;;
17564;SDS011;62994;52.126;5.596;2023-01-16T05:08:38;3.23;;;0.77;;
17564;SDS011;62994;52.126;5.596;2023-01-16T05:11:05;2.40;;;1.67;;
17564;SDS011;62994;52.126;5.596;2023-01-16T05:13:32;4.10;;;1.40;;
17564;SDS011;62994;52.126;5.596;2023-01-16T05:15:59;3.50;;;1.50;;
17564;SDS011;62994;52.126;5.596;2023-01-16T05:18:26;7.37;;;1.80;;
17564;SDS011;62994;52.126;5.596;2023-01-16T05:20:53;1.60;;;1.50;;
17564;SDS011;62994;52.126;5.596;2023-01-16T05:23:21;5.57;;;1.50;;
17564;SDS011;62994;52.126;5.596;2023-01-16T05:25:49;6.13;;;1.40;;
17564;SDS011;62994;52.126;5.596;2023-01-16T05:28:16;3.33;;;1.50;;
17564;SDS011;62994;52.126;5.596;2023-01-16T05:30:43;3.63;;;1.40;;
17564;SDS011;62994;52.126;5.596;2023-01-16T05:33:10;2.05;;;1.00;;
17564;SDS011;62994;52.126;5.596;2023-01-16T05:35:36;3.47;;;1.83;;
17564;SDS011;62994;52.126;5.596;2023-01-16T05:38:03;6.88;;;1.80;;
17564;SDS011;62994;52.126;5.596;2023-01-16T05:40:30;2.63;;;1.40;;
17564;SDS011;62994;52.126;5.596;2023-01-16T05:42:58;6.57;;;1.33;;
17564;SDS011;62994;52.126;5.596;2023-01-16T05:45:25;6.50;;;1.47;;
17564;SDS011;62994;52.126;5.596;2023-01-16T05:47:52;7.77;;;1.40;;
17564;SDS011;62994;52.126;5.596;2023-01-16T05:50:19;2.30;;;1.37;;
17564;SDS011;62994;52.126;5.596;2023-01-16T05:52:46;3.87;;;1.60;;
17564;SDS011;62994;52.126;5.596;2023-01-16T05:55:13;3.50;;;1.90;;
17564;SDS011;62994;52.126;5.596;2023-01-16T05:57:40;10.33;;;1.77;;
17564;SDS011;62994;52.126;5.596;2023-01-16T06:00:09;9.40;;;2.30;;
17564;SDS011;62994;52.126;5.596;2023-01-16T06:02:37;3.60;;;1.53;;
17564;SDS011;62994;52.126;5.596;2023-01-16T06:05:04;2.77;;;1.63;;
17564;SDS011;62994;52.126;5.596;2023-01-16T06:07:31;3.27;;;1.47;;
17564;SDS011;62994;52.126;5.596;2023-01-16T06:09:58;2.70;;;1.60;;
17564;SDS011;62994;52.126;5.596;2023-01-16T06:12:25;4.30;;;1.40;;
17564;SDS011;62994;52.126;5.596;2023-01-16T06:14:52;4.18;;;1.40;;
17564;SDS011;62994;52.126;5.596;2023-01-16T06:17:21;3.37;;;1.97;;
17564;SDS011;62994;52.126;5.596;2023-01-16T06:19:47;4.20;;;1.27;;
17564;SDS011;62994;52.126;5.596;2023-01-16T06:22:14;4.00;;;1.40;;
17564;SDS011;62994;52.126;5.596;2023-01-16T06:24:42;3.90;;;1.73;;
17564;SDS011;62994;52.126;5.596;2023-01-16T06:27:08;6.00;;;1.60;;
17564;SDS011;62994;52.126;5.596;2023-01-16T06:29:35;3.47;;;1.20;;
17564;SDS011;62994;52.126;5.596;2023-01-16T06:32:04;4.33;;;1.30;;
17564;SDS011;62994;52.126;5.596;2023-01-16T06:34:32;2.53;;;1.40;;
17564;SDS011;62994;52.126;5.596;2023-01-16T06:36:59;4.93;;;1.57;;
17564;SDS011;62994;52.126;5.596;2023-01-16T06:39:26;4.20;;;1.50;;
17564;SDS011;62994;52.126;5.596;2023-01-16T06:41:53;7.90;;;1.80;;
17564;SDS011;62994;52.126;5.596;2023-01-16T06:44:20;2.50;;;1.43;;
17564;SDS011;62994;52.126;5.596;2023-01-16T06:46:47;5.97;;;1.43;;
17564;SDS011;62994;52.126;5.596;2023-01-16T06:49:13;2.63;;;1.40;;
17564;SDS011;62994;52.126;5.596;2023-01-16T06:51:42;3.27;;;1.20;;
17564;SDS011;62994;52.126;5.596;2023-01-16T06:54:09;2.40;;;1.07;;
17564;SDS011;62994;52.126;5.596;2023-01-16T06:56:36;4.87;;;1.27;;
17564;SDS011;62994;52.126;5.596;2023-01-16T06:59:03;2.93;;;1.33;;
17564;SDS011;62994;52.126;5.596;2023-01-16T07:01:30;3.83;;;1.43;;
17564;SDS011;62994;52.126;5.596;2023-01-16T07:03:57;3.23;;;1.20;;
17564;SDS011;62994;52.126;5.596;2023-01-16T07:06:24;2.30;;;1.67;;
17564;SDS011;62994;52.126;5.596;2023-01-16T07:08:52;3.15;;;1.35;;
17564;SDS011;62994;52.126;5.596;2023-01-16T07:11:19;2.30;;;1.30;;
17564;SDS011;62994;52.126;5.596;2023-01-16T07:13:46;4.57;;;1.50;;
17564;SDS011;62994;52.126;5.596;2023-01-16T07:16:14;3.42;;;1.20;;
17564;SDS011;62994;52.126;5.596;2023-01-16T07:19:00;5.30;;;1.40;;
17564;SDS011;62994;52.126;5.596;2023-01-16T07:21:44;1.97;;;1.30;;
17564;SDS011;62994;52.126;5.596;2023-01-16T07:24:33;4.18;;;2.00;;
17564;SDS011;62994;52.126;5.596;2023-01-16T07:27:04;2.28;;;1.23;;
17564;SDS011;62994;52.126;5.596;2023-01-16T07:29:34;1.90;;;1.20;;
17564;SDS011;62994;52.126;5.596;2023-01-16T07:32:01;2.53;;;1.90;;
17564;SDS011;62994;52.126;5.596;2023-01-16T07:34:29;1.60;;;1.17;;
17564;SDS011;62994;52.126;5.596;2023-01-16T07:36:56;1.30;;;1.20;;
17564;SDS011;62994;52.126;5.596;2023-01-16T07:39:23;1.67;;;1.57;;
17564;SDS011;62994;52.126;5.596;2023-01-16T07:41:51;2.43;;;1.40;;
17564;SDS011;62994;52.126;5.596;2023-01-16T07:44:18;3.03;;;1.43;;
17564;SDS011;62994;52.126;5.596;2023-01-16T07:46:45;1.88;;;1.20;;
17564;SDS011;62994;52.126;5.596;2023-01-16T07:49:12;1.30;;;1.20;;
17564;SDS011;62994;52.126;5.596;2023-01-16T07:51:39;1.80;;;1.50;;
17564;SDS011;62994;52.126;5.596;2023-01-16T07:54:06;2.67;;;1.47;;
17564;SDS011;62994;52.126;5.596;2023-01-16T07:56:34;1.40;;;1.30;;
17564;SDS011;62994;52.126;5.596;2023-01-16T07:59:02;3.87;;;1.90;;
17564;SDS011;62994;52.126;5.596;2023-01-16T08:01:29;1.90;;;1.77;;
17564;SDS011;62994;52.126;5.596;2023-01-16T08:03:56;4.57;;;1.93;;
17564;SDS011;62994;52.126;5.596;2023-01-16T08:06:23;2.70;;;2.20;;
17564;SDS011;62994;52.126;5.596;2023-01-16T08:08:52;2.30;;;2.10;;
17564;SDS011;62994;52.126;5.596;2023-01-16T08:11:19;2.20;;;2.00;;
17564;SDS011;62994;52.126;5.596;2023-01-16T08:14:03;1.98;;;1.75;;
17564;SDS011;62994;52.126;5.596;2023-01-16T08:16:31;2.60;;;2.45;;
17564;SDS011;62994;52.126;5.596;2023-01-16T08:18:59;2.70;;;2.50;;
17564;SDS011;62994;52.126;5.596;2023-01-16T08:21:26;2.30;;;2.10;;
17564;SDS011;62994;52.126;5.596;2023-01-16T08:23:53;3.80;;;2.47;;
17564;SDS011;62994;52.126;5.596;2023-01-16T08:26:19;3.10;;;2.37;;
17564;SDS011;62994;52.126;5.596;2023-01-16T08:28:46;3.40;;;2.07;;
17564;SDS011;62994;52.126;5.596;2023-01-16T08:31:15;6.63;;;2.20;;
17564;SDS011;62994;52.126;5.596;2023-01-16T08:33:43;4.03;;;2.00;;
17564;SDS011;62994;52.126;5.596;2023-01-16T08:36:11;2.13;;;1.90;;
17564;SDS011;62994;52.126;5.596;2023-01-16T08:38:40;2.10;;;2.00;;
17564;SDS011;62994;52.126;5.596;2023-01-16T08:41:07;2.22;;;2.10;;
17564;SDS011;62994;52.126;5.596;2023-01-16T08:43:55;2.30;;;2.10;;
17564;SDS011;62994;52.126;5.596;2023-01-16T08:46:41;3.27;;;1.90;;
17564;SDS011;62994;52.126;5.596;2023-01-16T08:49:26;2.00;;;1.90;;
17564;SDS011;62994;52.126;5.596;2023-01-16T08:52:11;5.57;;;2.00;;
17564;SDS011;62994;52.126;5.596;2023-01-16T08:54:38;3.43;;;1.70;;
17564;SDS011;62994;52.126;5.596;2023-01-16T08:57:05;2.53;;;2.10;;
17564;SDS011;62994;52.126;5.596;2023-01-16T08:59:31;2.83;;;1.70;;
17564;SDS011;62994;52.126;5.596;2023-01-16T09:02:01;1.70;;;1.60;;
17564;SDS011;62994;52.126;5.596;2023-01-16T09:04:28;2.13;;;1.93;;
17564;SDS011;62994;52.126;5.596;2023-01-16T09:06:55;2.80;;;1.50;;
17564;SDS011;62994;52.126;5.596;2023-01-16T09:09:22;2.00;;;1.88;;
17564;SDS011;62994;52.126;5.596;2023-01-16T09:11:53;4.13;;;2.42;;
17564;SDS011;62994;52.126;5.596;2023-01-16T09:14:37;2.13;;;1.50;;
17564;SDS011;62994;52.126;5.596;2023-01-16T09:17:06;1.77;;;1.67;;
17564;SDS011;62994;52.126;5.596;2023-01-16T09:19:34;2.00;;;1.70;;
17564;SDS011;62994;52.126;5.596;2023-01-16T09:22:01;3.20;;;1.85;;
17564;SDS011;62994;52.126;5.596;2023-01-16T09:24:31;2.50;;;1.67;;
17564;SDS011;62994;52.126;5.596;2023-01-16T09:26:58;5.73;;;1.87;;
17564;SDS011;62994;52.126;5.596;2023-01-16T09:29:24;2.40;;;1.83;;
17564;SDS011;62994;52.126;5.596;2023-01-16T09:31:52;2.30;;;1.57;;
17564;SDS011;62994;52.126;5.596;2023-01-16T09:34:21;1.80;;;1.70;;
17564;SDS011;62994;52.126;5.596;2023-01-16T09:36:48;3.13;;;1.90;;
17564;SDS011;62994;52.126;5.596;2023-01-16T09:39:15;2.25;;;2.05;;
17564;SDS011;62994;52.126;5.596;2023-01-16T09:41:43;2.20;;;1.63;;
17564;SDS011;62994;52.126;5.596;2023-01-16T09:44:40;2.80;;;2.05;;
17564;SDS011;62994;52.126;5.596;2023-01-16T09:47:10;4.30;;;1.87;;
17564;SDS011;62994;52.126;5.596;2023-01-16T09:49:40;1.95;;;1.83;;
17564;SDS011;62994;52.126;5.596;2023-01-16T09:52:12;3.40;;;2.05;;
17564;SDS011;62994;52.126;5.596;2023-01-16T09:55:02;2.10;;;1.90;;
17564;SDS011;62994;52.126;5.596;2023-01-16T09:57:54;1.88;;;1.77;;
17564;SDS011;62994;52.126;5.596;2023-01-16T10:00:39;2.38;;;2.17;;
17564;SDS011;62994;52.126;5.596;2023-01-16T10:03:06;2.35;;;1.70;;
17564;SDS011;62994;52.126;5.596;2023-01-16T10:05:37;1.65;;;1.55;;
17564;SDS011;62994;52.126;5.596;2023-01-16T10:08:09;2.07;;;1.60;;
17564;SDS011;62994;52.126;5.596;2023-01-16T10:10:43;1.83;;;1.73;;
17564;SDS011;62994;52.126;5.596;2023-01-16T10:13:26;3.30;;;3.03;;
17564;SDS011;62994;52.126;5.596;2023-01-16T10:16:07;2.20;;;2.10;;
17564;SDS011;62994;52.126;5.596;2023-01-16T10:18:43;1.63;;;1.57;;
17564;SDS011;62994;52.126;5.596;2023-01-16T10:24:21;2.88;;;1.73;;
17564;SDS011;62994;52.126;5.596;2023-01-16T10:27:00;1.63;;;1.52;;
17564;SDS011;62994;52.126;5.596;2023-01-16T10:29:36;1.95;;;1.85;;
17564;SDS011;62994;52.126;5.596;2023-01-16T10:32:10;2.00;;;1.83;;
17564;SDS011;62994;52.126;5.596;2023-01-16T10:34:43;1.75;;;1.65;;
17564;SDS011;62994;52.126;5.596;2023-01-16T10:37:17;1.90;;;1.80;;
17564;SDS011;62994;52.126;5.596;2023-01-16T10:39:47;1.90;;;1.60;;
17564;SDS011;62994;52.126;5.596;2023-01-16T10:42:17;1.73;;;1.63;;
17564;SDS011;62994;52.126;5.596;2023-01-16T10:45:12;1.98;;;1.63;;
17564;SDS011;62994;52.126;5.596;2023-01-16T10:47:58;1.50;;;1.40;;
17564;SDS011;62994;52.126;5.596;2023-01-16T10:50:43;1.00;;;1.00;;
17564;SDS011;62994;52.126;5.596;2023-01-16T10:53:12;1.30;;;1.30;;
17564;SDS011;62994;52.126;5.596;2023-01-16T10:55:42;2.17;;;1.20;;
17564;SDS011;62994;52.126;5.596;2023-01-16T10:58:17;1.45;;;1.02;;
17564;SDS011;62994;52.126;5.596;2023-01-16T11:00:52;1.33;;;1.20;;
17564;SDS011;62994;52.126;5.596;2023-01-16T11:03:23;0.90;;;0.90;;
17564;SDS011;62994;52.126;5.596;2023-01-16T11:06:05;1.88;;;1.00;;
17564;SDS011;62994;52.126;5.596;2023-01-16T11:08:45;1.48;;;1.20;;
17564;SDS011;62994;52.126;5.596;2023-01-16T11:11:16;1.27;;;1.20;;
17564;SDS011;62994;52.126;5.596;2023-01-16T11:14:10;1.67;;;1.58;;
17564;SDS011;62994;52.126;5.596;2023-01-16T11:17:05;2.00;;;1.63;;
17564;SDS011;62994;52.126;5.596;2023-01-16T11:20:04;1.10;;;1.10;;
17564;SDS011;62994;52.126;5.596;2023-01-16T11:22:32;1.60;;;1.50;;
17564;SDS011;62994;52.126;5.596;2023-01-16T11:25:05;1.38;;;1.38;;
17564;SDS011;62994;52.126;5.596;2023-01-16T11:27:41;1.63;;;1.52;;
17564;SDS011;62994;52.126;5.596;2023-01-16T11:30:13;1.45;;;1.35;;
17564;SDS011;62994;52.126;5.596;2023-01-16T11:32:45;4.97;;;1.23;;
17564;SDS011;62994;52.126;5.596;2023-01-16T11:35:14;1.45;;;1.35;;
17564;SDS011;62994;52.126;5.596;2023-01-16T11:37:43;1.42;;;1.42;;
17564;SDS011;62994;52.126;5.596;2023-01-16T11:40:15;1.65;;;1.02;;
17564;SDS011;62994;52.126;5.596;2023-01-16T11:42:54;1.27;;;1.15;;
17564;SDS011;62994;52.126;5.596;2023-01-16T11:45:55;1.17;;;1.13;;
17564;SDS011;62994;52.126;5.596;2023-01-16T11:48:41;0.90;;;0.90;;
17564;SDS011;62994;52.126;5.596;2023-01-16T11:51:14;1.13;;;1.10;;
17564;SDS011;62994;52.126;5.596;2023-01-16T11:53:43;1.25;;;1.15;;
17564;SDS011;62994;52.126;5.596;2023-01-16T11:56:16;2.65;;;1.17;;
17564;SDS011;62994;52.126;5.596;2023-01-16T11:59:04;1.08;;;1.08;;
17564;SDS011;62994;52.126;5.596;2023-01-16T12:01:43;1.88;;;0.90;;
17564;SDS011;62994;52.126;5.596;2023-01-16T12:04:36;1.20;;;1.05;;
17564;SDS011;62994;52.126;5.596;2023-01-16T12:07:30;0.80;;;0.80;;
17564;SDS011;62994;52.126;5.596;2023-01-16T12:10:10;1.45;;;0.90;;
17564;SDS011;62994;52.126;5.596;2023-01-16T12:12:51;1.00;;;0.95;;
17564;SDS011;62994;52.126;5.596;2023-01-16T12:15:47;1.52;;;0.77;;
17564;SDS011;62994;52.126;5.596;2023-01-16T12:18:27;1.33;;;0.65;;
17564;SDS011;62994;52.126;5.596;2023-01-16T12:21:00;1.95;;;0.85;;
17564;SDS011;62994;52.126;5.596;2023-01-16T12:23:31;2.90;;;0.90;;
17564;SDS011;62994;52.126;5.596;2023-01-16T12:26:14;0.77;;;0.77;;
17564;SDS011;62994;52.126;5.596;2023-01-16T12:28:48;0.70;;;0.70;;
17564;SDS011;62994;52.126;5.596;2023-01-16T12:37:21;0.60;;;0.60;;
17564;SDS011;62994;52.126;5.596;2023-01-16T12:40:01;2.25;;;1.70;;
17564;SDS011;62994;52.126;5.596;2023-01-16T12:42:46;3.42;;;2.35;;
17564;SDS011;62994;52.126;5.596;2023-01-16T12:45:42;0.70;;;0.70;;
17564;SDS011;62994;52.126;5.596;2023-01-16T12:54:17;2.70;;;0.60;;
17564;SDS011;62994;52.126;5.596;2023-01-16T12:57:01;1.17;;;1.08;;
17564;SDS011;62994;52.126;5.596;2023-01-16T12:59:46;0.60;;;0.60;;
17564;SDS011;62994;52.126;5.596;2023-01-16T13:02:19;3.17;;;0.70;;
17564;SDS011;62994;52.126;5.596;2023-01-16T13:04:51;0.70;;;0.70;;
17564;SDS011;62994;52.126;5.596;2023-01-16T13:07:33;0.70;;;0.70;;
17564;SDS011;62994;52.126;5.596;2023-01-16T13:10:05;0.65;;;0.57;;
17564;SDS011;62994;52.126;5.596;2023-01-16T13:12:58;0.70;;;0.70;;
17564;SDS011;62994;52.126;5.596;2023-01-16T13:15:45;1.30;;;0.70;;
17564;SDS011;62994;52.126;5.596;2023-01-16T13:18:17;0.60;;;0.60;;
17564;SDS011;62994;52.126;5.596;2023-01-16T13:20:49;0.60;;;0.60;;
17564;SDS011;62994;52.126;5.596;2023-01-16T13:23:20;0.95;;;0.90;;
17564;SDS011;62994;52.126;5.596;2023-01-16T13:25:53;1.00;;;1.00;;
17564;SDS011;62994;52.126;5.596;2023-01-16T13:28:25;0.68;;;0.60;;
17564;SDS011;62994;52.126;5.596;2023-01-16T13:31:01;0.88;;;0.60;;
17564;SDS011;62994;52.126;5.596;2023-01-16T13:33:31;0.85;;;0.70;;
17564;SDS011;62994;52.126;5.596;2023-01-16T13:36:07;0.70;;;0.70;;
17564;SDS011;62994;52.126;5.596;2023-01-16T13:38:53;0.50;;;0.50;;
17564;SDS011;62994;52.126;5.596;2023-01-16T13:41:27;0.90;;;0.90;;
17564;SDS011;62994;52.126;5.596;2023-01-16T13:43:57;0.75;;;0.75;;
17564;SDS011;62994;52.126;5.596;2023-01-16T13:46:46;0.50;;;0.50;;
17564;SDS011;62994;52.126;5.596;2023-01-16T13:49:16;0.70;;;0.70;;
17564;SDS011;62994;52.126;5.596;2023-01-16T13:51:47;0.77;;;0.77;;
17564;SDS011;62994;52.126;5.596;2023-01-16T13:54:18;0.68;;;0.60;;
17564;SDS011;62994;52.126;5.596;2023-01-16T13:56:55;0.80;;;0.80;;
17564;SDS011;62994;52.126;5.596;2023-01-16T13:59:35;0.65;;;0.65;;
17564;SDS011;62994;52.126;5.596;2023-01-16T14:02:24;0.63;;;0.63;;
17564;SDS011;62994;52.126;5.596;2023-01-16T14:05:20;1.10;;;1.00;;
17564;SDS011;62994;52.126;5.596;2023-01-16T14:08:05;1.20;;;1.02;;
17564;SDS011;62994;52.126;5.596;2023-01-16T14:11:12;0.77;;;0.77;;
17564;SDS011;62994;52.126;5.596;2023-01-16T14:17:13;0.98;;;0.60;;
17564;SDS011;62994;52.126;5.596;2023-01-16T14:19:47;0.55;;;0.55;;
17564;SDS011;62994;52.126;5.596;2023-01-16T14:22:18;1.20;;;1.13;;
17564;SDS011;62994;52.126;5.596;2023-01-16T14:25:06;0.85;;;0.85;;
17564;SDS011;62994;52.126;5.596;2023-01-16T14:27:44;1.85;;;1.00;;
17564;SDS011;62994;52.126;5.596;2023-01-16T14:30:17;0.93;;;0.93;;
17564;SDS011;62994;52.126;5.596;2023-01-16T14:32:46;1.33;;;1.25;;
17564;SDS011;62994;52.126;5.596;2023-01-16T14:35:17;1.00;;;1.00;;
17564;SDS011;62994;52.126;5.596;2023-01-16T14:37:53;0.90;;;0.90;;
17564;SDS011;62994;52.126;5.596;2023-01-16T14:40:27;1.10;;;1.10;;
17564;SDS011;62994;52.126;5.596;2023-01-16T14:43:13;1.38;;;1.30;;
17564;SDS011;62994;52.126;5.596;2023-01-16T14:55:52;1.38;;;1.27;;
17564;SDS011;62994;52.126;5.596;2023-01-16T14:58:26;2.15;;;0.90;;
17564;SDS011;62994;52.126;5.596;2023-01-16T15:00:58;1.80;;;1.00;;
17564;SDS011;62994;52.126;5.596;2023-01-16T15:03:40;0.90;;;0.90;;
17564;SDS011;62994;52.126;5.596;2023-01-16T15:06:07;0.93;;;0.93;;
17564;SDS011;62994;52.126;5.596;2023-01-16T15:08:36;1.08;;;1.08;;
17564;SDS011;62994;52.126;5.596;2023-01-16T15:11:08;0.70;;;0.70;;
17564;SDS011;62994;52.126;5.596;2023-01-16T15:14:02;1.00;;;1.00;;
17564;SDS011;62994;52.126;5.596;2023-01-16T15:16:48;0.90;;;0.90;;
17564;SDS011;62994;52.126;5.596;2023-01-16T15:19:33;0.90;;;0.90;;
17564;SDS011;62994;52.126;5.596;2023-01-16T15:22:18;0.90;;;0.88;;
17564;SDS011;62994;52.126;5.596;2023-01-16T15:24:47;1.40;;;1.10;;
17564;SDS011;62994;52.126;5.596;2023-01-16T15:27:21;0.88;;;0.88;;
17564;SDS011;62994;52.126;5.596;2023-01-16T15:29:51;0.90;;;0.90;;
17564;SDS011;62994;52.126;5.596;2023-01-16T15:32:26;1.88;;;1.10;;
17564;SDS011;62994;52.126;5.596;2023-01-16T15:35:03;1.45;;;1.35;;
17564;SDS011;62994;52.126;5.596;2023-01-16T15:37:32;1.30;;;1.20;;
17564;SDS011;62994;52.126;5.596;2023-01-16T15:39:59;1.38;;;1.38;;
17564;SDS011;62994;52.126;5.596;2023-01-16T15:42:28;1.52;;;1.42;;
17564;SDS011;62994;52.126;5.596;2023-01-16T15:45:17;1.30;;;1.30;;
17564;SDS011;62994;52.126;5.596;2023-01-16T15:48:10;1.30;;;1.30;;
17564;SDS011;62994;52.126;5.596;2023-01-16T15:51:02;1.40;;;1.40;;
17564;SDS011;62994;52.126;5.596;2023-01-16T15:54:02;1.50;;;1.50;;
17564;SDS011;62994;52.126;5.596;2023-01-16T15:56:33;1.73;;;1.63;;